Time;durP1;ratioP1;P1;durP2;ratioP2;P2;SDS_P1;SDS_P2;PMS_P1;PMS_P2;Temp;Humidity;BMP_temperature;BMP_pressure;BME280_temperature;BME280_humidity;BME280_pressure;Samples;Min_cycle;Max_cycle;Signal;HPM_P1;HPM_P2
2023/03/08 00:00:31;;;;;;;1.63;1.53;;;14.50;59.90;;;;;;5061095;28;20189;-48
2023/03/08 00:03:03;;;;;;;1.47;1.37;;;14.50;59.90;;;;;;5056582;28;20216;-47
2023/03/08 00:05:36;;;;;;;1.63;1.30;;;14.40;60.00;;;;;;5066453;28;20197;-47
2023/03/08 00:08:06;;;;;;;1.87;1.57;;;14.50;60.00;;;;;;5047300;28;20240;-47
2023/03/08 00:10:38;;;;;;;1.17;0.90;;;14.50;60.10;;;;;;5037387;28;20194;-47
2023/03/08 00:13:09;;;;;;;2.00;1.20;;;14.40;60.00;;;;;;5050401;28;20840;-47
2023/03/08 00:15:40;;;;;;;1.80;1.47;;;14.40;60.10;;;;;;5068996;28;20202;-48
2023/03/08 00:18:11;;;;;;;2.60;1.60;;;14.40;60.00;;;;;;5042709;28;20667;-47
2023/03/08 00:20:45;;;;;;;2.63;1.70;;;14.40;60.10;;;;;;5050240;28;20222;-47
2023/03/08 00:23:13;;;;;;;1.47;1.13;;;14.40;60.00;;;;;;5065195;28;20601;-47
2023/03/08 00:25:45;;;;;;;1.43;1.33;;;14.40;60.10;;;;;;5050267;28;20514;-47
2023/03/08 00:28:16;;;;;;;1.60;1.50;;;14.40;59.90;;;;;;5060535;28;20189;-47
2023/03/08 00:30:56;;;;;;;1.40;1.00;;;14.40;60.00;;;;;;5050549;28;20639;-47
2023/03/08 00:33:24;;;;;;;2.13;1.40;;;14.40;60.00;;;;;;5053364;28;20193;-48
2023/03/08 00:36:02;;;;;;;1.50;1.33;;;14.50;60.10;;;;;;5054115;28;20259;-48
2023/03/08 00:38:37;;;;;;;1.57;1.33;;;14.40;60.20;;;;;;5051784;28;20649;-47
2023/03/08 00:41:09;;;;;;;2.10;1.17;;;14.40;60.10;;;;;;5047885;28;20255;-48
2023/03/08 00:43:42;;;;;;;2.53;1.20;;;14.50;60.10;;;;;;5069800;28;20636;-47
2023/03/08 00:46:17;;;;;;;3.37;1.47;;;14.40;60.20;;;;;;5063520;28;20271;-47
2023/03/08 00:48:48;;;;;;;2.57;1.37;;;14.40;60.30;;;;;;5049367;28;20185;-47
2023/03/08 00:51:20;;;;;;;1.33;1.23;;;14.40;60.30;;;;;;5052789;28;20194;-48
2023/03/08 00:53:52;;;;;;;1.60;1.47;;;14.40;60.20;;;;;;5074128;28;20594;-48
2023/03/08 00:56:23;;;;;;;2.20;1.60;;;14.40;60.10;;;;;;5057613;28;20283;-47
2023/03/08 00:58:54;;;;;;;1.20;1.10;;;14.40;60.20;;;;;;5068348;28;20635;-47
2023/03/08 01:01:24;;;;;;;1.50;1.20;;;14.40;60.30;;;;;;5062448;28;20206;-47
2023/03/08 01:03:54;;;;;;;1.60;1.50;;;14.40;60.30;;;;;;5064651;28;20205;-47
2023/03/08 01:06:22;;;;;;;1.67;1.57;;;14.40;60.30;;;;;;5071597;28;20281;-47
2023/03/08 01:08:51;;;;;;;1.53;1.43;;;14.40;60.10;;;;;;5031570;28;21250;-48
2023/03/08 01:11:25;;;;;;;2.23;1.50;;;14.40;60.20;;;;;;5055882;28;20198;-48
2023/03/08 01:13:56;;;;;;;2.03;1.60;;;14.40;60.40;;;;;;5059627;28;21464;-47
2023/03/08 01:16:31;;;;;;;1.50;1.37;;;14.40;60.30;;;;;;5055634;28;20189;-47
2023/03/08 01:19:06;;;;;;;2.13;1.50;;;14.40;60.40;;;;;;5062030;28;20277;-49
2023/03/08 01:21:37;;;;;;;1.97;1.57;;;14.40;60.30;;;;;;5075046;28;20271;-47
2023/03/08 01:24:08;;;;;;;1.50;1.40;;;14.40;60.90;;;;;;5071914;28;20220;-51
2023/03/08 01:26:40;;;;;;;1.67;1.57;;;14.40;60.30;;;;;;5069295;28;20194;-48
2023/03/08 01:29:30;;;;;;;1.20;1.10;;;14.40;60.30;;;;;;5068668;28;20302;-47
2023/03/08 01:31:59;;;;;;;1.43;1.10;;;14.40;60.40;;;;;;5054482;28;20205;-47
2023/03/08 01:34:28;;;;;;;1.93;1.60;;;14.30;60.40;;;;;;5051966;28;20198;-47
2023/03/08 01:36:58;;;;;;;2.10;1.63;;;14.40;60.40;;;;;;5065505;28;20242;-47
2023/03/08 01:39:29;;;;;;;1.63;1.30;;;14.30;60.30;;;;;;5055225;28;20215;-47
2023/03/08 01:41:58;;;;;;;1.80;1.70;;;14.30;60.40;;;;;;5073705;28;20209;-47
2023/03/08 01:44:28;;;;;;;1.50;1.23;;;14.30;60.30;;;;;;5075453;28;20243;-47
2023/03/08 01:46:58;;;;;;;2.00;1.80;;;14.40;60.30;;;;;;5074083;28;20301;-47
2023/03/08 01:49:30;;;;;;;1.37;1.20;;;14.40;60.40;;;;;;5098117;28;21014;-47
2023/03/08 01:52:06;;;;;;;2.37;1.70;;;14.40;61.00;;;;;;5090438;28;20576;-47
2023/03/08 01:54:54;;;;;;;1.73;1.30;;;14.40;60.30;;;;;;5081124;28;20727;-47
2023/03/08 01:57:38;;;;;;;1.07;0.97;;;14.30;60.50;;;;;;5074446;28;20189;-47
2023/03/08 02:00:24;;;;;;;1.53;1.10;;;14.30;60.50;;;;;;5070358;28;20665;-47
2023/03/08 02:03:04;;;;;;;1.27;1.13;;;14.40;60.50;;;;;;5072929;28;20201;-47
2023/03/08 02:05:46;;;;;;;1.53;1.43;;;14.30;60.50;;;;;;5095978;28;20242;-47
2023/03/08 02:08:17;;;;;;;1.77;1.50;;;14.30;60.40;;;;;;5085272;28;20213;-47
2023/03/08 02:10:49;;;;;;;1.40;1.27;;;14.30;60.40;;;;;;5090632;28;20182;-47
2023/03/08 02:13:24;;;;;;;1.10;1.00;;;14.30;60.50;;;;;;5094879;28;20586;-48
2023/03/08 02:15:58;;;;;;;1.50;1.40;;;14.30;60.40;;;;;;5087560;28;20226;-47
2023/03/08 02:18:27;;;;;;;2.03;1.60;;;14.40;60.50;;;;;;5071128;28;20220;-47
2023/03/08 02:20:57;;;;;;;1.70;1.30;;;14.30;60.50;;;;;;5083531;28;20810;-47
2023/03/08 02:23:25;;;;;;;1.63;1.40;;;14.30;60.50;;;;;;5069576;28;20258;-47
2023/03/08 02:26:01;;;;;;;1.23;1.10;;;14.40;60.70;;;;;;5069717;28;20185;-47
2023/03/08 02:28:36;;;;;;;3.40;1.70;;;14.40;60.60;;;;;;5046667;28;20194;-47
2023/03/08 02:31:10;;;;;;;1.43;1.30;;;14.30;60.50;;;;;;5047859;28;20201;-47
2023/03/08 02:33:40;;;;;;;1.93;1.63;;;14.30;60.30;;;;;;5068393;28;20205;-47
2023/03/08 02:36:10;;;;;;;2.00;1.80;;;14.30;60.40;;;;;;5087330;28;20212;-47
2023/03/08 02:38:38;;;;;;;1.80;1.53;;;14.30;60.50;;;;;;5069233;28;20217;-47
2023/03/08 02:41:09;;;;;;;1.60;1.50;;;14.30;60.50;;;;;;5084687;28;20744;-47
2023/03/08 02:43:41;;;;;;;1.83;1.40;;;14.30;60.40;;;;;;5071260;28;20613;-47
2023/03/08 02:46:20;;;;;;;1.63;1.43;;;14.30;60.50;;;;;;5079990;28;20226;-47
2023/03/08 02:48:55;;;;;;;1.63;1.53;;;14.30;60.90;;;;;;5075047;28;20311;-47
2023/03/08 02:51:27;;;;;;;2.23;1.43;;;14.30;60.20;;;;;;5084789;28;20192;-47
2023/03/08 02:53:58;;;;;;;2.00;1.63;;;14.30;60.30;;;;;;5087817;28;20189;-47
2023/03/08 02:56:28;;;;;;;1.90;1.60;;;14.40;60.30;;;;;;5055290;28;20233;-47
2023/03/08 02:58:57;;;;;;;3.63;1.87;;;14.30;60.20;;;;;;5072087;28;20201;-47
2023/03/08 03:01:27;;;;;;;3.27;1.53;;;14.30;60.30;;;;;;5050675;28;20183;-47
2023/03/08 03:04:05;;;;;;;2.20;1.40;;;14.30;60.20;;;;;;5064884;28;20561;-47
2023/03/08 03:06:37;;;;;;;1.30;1.20;;;14.30;60.10;;;;;;5083145;28;20189;-47
2023/03/08 03:09:11;;;;;;;1.70;1.50;;;14.30;60.20;;;;;;5051889;28;20235;-47
2023/03/08 03:11:41;;;;;;;1.83;1.40;;;14.30;60.20;;;;;;5078565;28;20189;-47
2023/03/08 03:14:11;;;;;;;1.90;1.60;;;14.30;60.10;;;;;;5087688;28;20201;-47
2023/03/08 03:16:41;;;;;;;1.87;1.77;;;14.30;60.20;;;;;;5089454;28;20193;-47
2023/03/08 03:19:15;;;;;;;1.50;1.40;;;14.30;60.10;;;;;;5069909;28;20576;-47
2023/03/08 03:21:47;;;;;;;1.80;1.60;;;14.30;60.10;;;;;;5079391;28;20234;-47
2023/03/08 03:24:21;;;;;;;2.07;1.60;;;14.30;60.10;;;;;;5087838;28;20288;-47
2023/03/08 03:26:51;;;;;;;1.60;1.50;;;14.30;60.10;;;;;;5084421;28;20218;-48
2023/03/08 03:29:21;;;;;;;2.43;1.43;;;14.30;60.10;;;;;;5068138;28;20730;-48
2023/03/08 03:31:54;;;;;;;1.60;1.47;;;14.30;60.00;;;;;;5083436;28;20209;-47
2023/03/08 03:34:23;;;;;;;1.77;1.67;;;14.30;60.00;;;;;;5081315;28;20265;-47
2023/03/08 03:36:51;;;;;;;1.67;1.40;;;14.30;60.00;;;;;;5073328;28;20725;-47
2023/03/08 03:39:19;;;;;;;1.77;1.67;;;14.30;59.90;;;;;;5075140;28;20202;-48
2023/03/08 03:41:50;;;;;;;1.70;1.60;;;14.30;60.00;;;;;;5069798;28;20626;-47
2023/03/08 03:44:30;;;;;;;1.97;1.57;;;14.30;59.90;;;;;;5083567;28;20241;-47
2023/03/08 03:47:02;;;;;;;2.03;1.63;;;14.30;59.90;;;;;;5076846;28;20708;-47
2023/03/08 03:49:33;;;;;;;1.83;1.73;;;14.30;59.90;;;;;;5087425;28;20575;-47
2023/03/08 03:52:06;;;;;;;1.20;1.10;;;14.30;59.90;;;;;;5083596;28;20209;-47
2023/03/08 03:54:38;;;;;;;1.77;1.60;;;14.30;59.90;;;;;;5086347;28;20654;-47
2023/03/08 03:57:07;;;;;;;2.40;2.13;;;14.30;59.90;;;;;;5078656;28;20236;-47
2023/03/08 03:59:40;;;;;;;2.17;1.97;;;14.30;59.80;;;;;;5048772;28;20228;-47
2023/03/08 04:02:14;;;;;;;2.00;1.70;;;14.30;59.80;;;;;;5082576;28;20208;-47
2023/03/08 04:04:42;;;;;;;2.43;2.20;;;14.30;59.90;;;;;;5074835;28;20666;-47
2023/03/08 04:07:12;;;;;;;2.00;1.70;;;14.30;59.80;;;;;;5058277;28;20215;-47
2023/03/08 04:09:43;;;;;;;2.80;1.90;;;14.30;59.90;;;;;;5070455;28;20208;-47
2023/03/08 04:12:15;;;;;;;2.20;2.00;;;14.30;59.80;;;;;;5089991;28;20543;-48
2023/03/08 04:14:46;;;;;;;1.90;1.80;;;14.30;59.80;;;;;;5090594;28;20204;-47
2023/03/08 04:17:19;;;;;;;2.57;1.67;;;14.30;59.80;;;;;;5084033;28;20236;-48
2023/03/08 04:19:51;;;;;;;2.20;1.60;;;14.30;59.70;;;;;;5084564;28;20213;-47
2023/03/08 04:22:20;;;;;;;2.07;1.90;;;14.30;59.70;;;;;;5089050;28;20220;-48
2023/03/08 04:24:52;;;;;;;2.23;2.03;;;14.30;59.70;;;;;;5081649;28;20543;-48
2023/03/08 04:27:23;;;;;;;1.77;1.67;;;14.20;59.60;;;;;;5072046;28;20242;-47
2023/03/08 04:29:53;;;;;;;2.40;1.80;;;14.20;59.60;;;;;;5072169;28;20197;-47
2023/03/08 04:32:24;;;;;;;1.70;1.60;;;14.20;59.70;;;;;;5076716;28;20209;-47
2023/03/08 04:34:53;;;;;;;1.97;1.70;;;14.20;59.70;;;;;;5089184;28;20215;-47
2023/03/08 04:37:24;;;;;;;3.10;2.50;;;14.30;59.60;;;;;;5089956;28;20230;-47
2023/03/08 04:39:53;;;;;;;3.10;2.17;;;14.30;59.70;;;;;;5071554;28;20203;-47
2023/03/08 04:42:25;;;;;;;2.10;1.90;;;14.20;59.50;;;;;;5071054;28;20239;-47
2023/03/08 04:44:56;;;;;;;2.40;1.90;;;14.20;59.50;;;;;;5073059;28;20265;-47
2023/03/08 04:47:24;;;;;;;2.20;2.00;;;14.20;59.50;;;;;;5087019;28;20331;-47
2023/03/08 04:49:58;;;;;;;3.07;2.00;;;14.20;59.50;;;;;;5070111;28;20272;-47
2023/03/08 04:52:28;;;;;;;2.67;2.07;;;14.20;59.40;;;;;;5075703;28;20237;-47
2023/03/08 04:54:58;;;;;;;3.43;2.07;;;14.30;59.30;;;;;;5066743;28;20797;-47
2023/03/08 04:57:29;;;;;;;2.40;2.20;;;14.20;59.30;;;;;;5069810;28;20217;-47
2023/03/08 05:00:04;;;;;;;2.60;2.40;;;14.20;59.30;;;;;;5069381;28;20215;-48
2023/03/08 05:02:36;;;;;;;2.30;2.10;;;14.20;59.30;;;;;;5070448;28;20205;-47
2023/03/08 05:05:06;;;;;;;2.50;2.30;;;14.20;59.30;;;;;;5067109;28;20217;-47
2023/03/08 05:07:43;;;;;;;2.73;2.33;;;14.20;59.30;;;;;;5066747;28;20216;-47
2023/03/08 05:10:18;;;;;;;2.57;2.37;;;14.20;59.40;;;;;;5068869;28;20202;-47
2023/03/08 05:12:48;;;;;;;2.93;2.37;;;14.20;59.40;;;;;;5070261;28;20523;-47
2023/03/08 05:15:17;;;;;;;2.37;2.17;;;14.20;59.30;;;;;;5068975;28;20202;-47
2023/03/08 05:18:01;;;;;;;2.43;2.20;;;14.20;59.40;;;;;;5068996;28;20284;-47
2023/03/08 05:20:33;;;;;;;2.20;2.00;;;14.20;59.30;;;;;;5066647;28;20303;-48
2023/03/08 05:23:06;;;;;;;3.20;2.53;;;14.20;59.40;;;;;;5071108;28;20224;-47
2023/03/08 05:25:42;;;;;;;2.40;2.20;;;14.20;59.30;;;;;;5056879;28;20271;-48
2023/03/08 05:28:14;;;;;;;2.47;2.13;;;14.20;59.50;;;;;;5039184;28;20638;-49
2023/03/08 05:30:46;;;;;;;2.30;2.10;;;14.20;59.40;;;;;;5047199;28;20200;-47
2023/03/08 05:33:18;;;;;;;2.40;2.20;;;14.20;59.40;;;;;;5048951;28;20201;-47
2023/03/08 05:35:54;;;;;;;3.30;2.73;;;14.20;59.30;;;;;;5071355;28;20629;-47
2023/03/08 05:38:22;;;;;;;2.40;2.20;;;14.20;59.40;;;;;;5063446;28;20202;-47
2023/03/08 05:40:52;;;;;;;2.67;2.47;;;14.20;59.40;;;;;;5050613;28;20201;-47
2023/03/08 05:43:25;;;;;;;2.77;2.50;;;14.20;59.30;;;;;;5048175;28;20229;-47
2023/03/08 05:46:12;;;;;;;2.53;2.33;;;14.20;59.20;;;;;;5065968;28;20735;-48
2023/03/08 05:48:40;;;;;;;2.90;2.60;;;14.10;59.40;;;;;;5056029;28;20263;-47
2023/03/08 05:51:18;;;;;;;3.20;2.90;;;14.10;59.20;;;;;;5067930;28;20573;-47
2023/03/08 05:53:49;;;;;;;2.63;2.40;;;14.20;59.20;;;;;;5073623;28;20193;-47
2023/03/08 05:56:20;;;;;;;2.77;2.57;;;14.20;59.20;;;;;;5064943;28;20961;-47
2023/03/08 05:58:49;;;;;;;2.73;2.53;;;14.20;59.10;;;;;;5069173;28;20591;-47
2023/03/08 06:01:22;;;;;;;3.33;3.03;;;14.20;59.20;;;;;;5052063;28;20190;-47
2023/03/08 06:03:53;;;;;;;2.60;2.40;;;14.10;59.00;;;;;;5065451;28;20198;-47
2023/03/08 06:06:25;;;;;;;2.90;2.70;;;14.10;59.00;;;;;;5050963;28;20194;-47
2023/03/08 06:08:55;;;;;;;3.40;3.10;;;14.10;59.00;;;;;;5052807;28;20202;-49
2023/03/08 06:11:26;;;;;;;2.90;2.70;;;14.10;58.90;;;;;;5063125;28;20201;-47
2023/03/08 06:13:56;;;;;;;3.37;3.07;;;14.20;58.90;;;;;;5066634;28;20548;-47
2023/03/08 06:16:28;;;;;;;3.23;2.93;;;14.10;58.80;;;;;;5069488;28;20197;-47
2023/03/08 06:19:01;;;;;;;2.80;2.53;;;14.10;58.80;;;;;;5055455;28;20186;-47
2023/03/08 06:21:32;;;;;;;3.37;3.07;;;14.10;58.80;;;;;;5051951;28;20259;-47
2023/03/08 06:24:04;;;;;;;3.40;3.03;;;14.20;58.90;;;;;;5061286;28;20213;-47
2023/03/08 06:26:36;;;;;;;3.80;3.20;;;14.10;58.90;;;;;;5068076;28;20201;-48
2023/03/08 06:29:11;;;;;;;3.20;2.90;;;14.10;58.90;;;;;;5058093;28;20868;-47
2023/03/08 06:31:42;;;;;;;2.30;2.10;;;14.10;58.90;;;;;;5064260;28;20221;-47
2023/03/08 06:34:14;;;;;;;2.70;2.30;;;14.20;59.20;;;;;;5066413;28;20201;-47
2023/03/08 06:36:45;;;;;;;3.40;3.03;;;14.10;59.00;;;;;;5067096;28;20212;-47
2023/03/08 06:39:13;;;;;;;2.93;2.67;;;14.10;59.10;;;;;;5065356;28;20228;-47
2023/03/08 06:41:45;;;;;;;2.47;2.27;;;14.10;59.00;;;;;;5067707;28;20240;-47
2023/03/08 06:44:14;;;;;;;3.37;3.07;;;14.10;59.10;;;;;;5076885;28;20228;-47
2023/03/08 06:46:41;;;;;;;2.40;2.20;;;14.20;58.80;;;;;;5054059;28;20225;-47
2023/03/08 06:49:11;;;;;;;3.07;2.77;;;14.20;59.10;;;;;;5061059;28;20264;-47
2023/03/08 06:51:41;;;;;;;2.53;2.30;;;14.10;59.00;;;;;;5067386;28;20217;-47
2023/03/08 06:54:16;;;;;;;4.10;2.87;;;14.10;59.30;;;;;;5067711;28;20204;-47
2023/03/08 06:56:47;;;;;;;3.57;2.30;;;14.20;59.40;;;;;;5064016;28;20208;-48
2023/03/08 06:59:19;;;;;;;2.50;2.30;;;14.20;59.20;;;;;;5043437;28;20190;-47
2023/03/08 07:01:49;;;;;;;2.53;2.33;;;14.10;59.40;;;;;;5066385;28;20205;-48
2023/03/08 07:04:18;;;;;;;3.07;2.83;;;14.10;59.10;;;;;;5071371;28;20208;-48
2023/03/08 07:06:58;;;;;;;2.30;2.10;;;14.10;59.10;;;;;;5058220;28;20208;-48
2023/03/08 07:09:28;;;;;;;2.90;2.70;;;14.10;59.10;;;;;;5072192;28;20565;-48
2023/03/08 07:11:58;;;;;;;2.40;2.03;;;14.10;59.00;;;;;;5067426;28;20560;-47
2023/03/08 07:14:28;;;;;;;2.30;2.10;;;14.20;59.10;;;;;;5055614;28;20271;-47
2023/03/08 07:17:00;;;;;;;2.00;1.80;;;14.10;59.10;;;;;;5064437;28;20577;-47
2023/03/08 07:19:30;;;;;;;2.80;2.30;;;14.20;59.10;;;;;;5045301;28;20209;-48
2023/03/08 07:22:15;;;;;;;2.43;1.87;;;14.10;59.00;;;;;;5048888;28;20284;-47
2023/03/08 07:24:47;;;;;;;2.53;1.83;;;14.20;58.90;;;;;;5070118;28;20224;-47
2023/03/08 07:27:17;;;;;;;3.00;2.27;;;14.10;59.00;;;;;;5067625;28;20209;-47
2023/03/08 07:29:46;;;;;;;2.17;1.97;;;14.10;58.70;;;;;;5058009;28;20190;-47
2023/03/08 07:32:19;;;;;;;2.43;2.20;;;14.10;58.80;;;;;;5054642;28;20235;-47
2023/03/08 07:34:50;;;;;;;2.23;2.03;;;14.20;58.80;;;;;;5077962;28;20648;-47
2023/03/08 07:37:22;;;;;;;2.37;1.80;;;14.20;58.80;;;;;;5072326;28;20201;-47
2023/03/08 07:39:53;;;;;;;2.30;2.10;;;14.20;58.70;;;;;;5078864;28;20197;-47
2023/03/08 07:42:27;;;;;;;3.20;1.90;;;14.20;58.70;;;;;;5063813;28;20201;-47
2023/03/08 07:44:59;;;;;;;1.70;1.50;;;14.20;58.70;;;;;;5068781;28;20237;-47
2023/03/08 07:47:29;;;;;;;1.97;1.60;;;14.20;58.60;;;;;;5072808;28;20256;-47
2023/03/08 07:50:00;;;;;;;1.83;1.73;;;14.20;58.60;;;;;;5079527;28;20442;-47
2023/03/08 07:52:36;;;;;;;1.60;1.30;;;14.10;58.50;;;;;;5085737;28;20189;-47
2023/03/08 07:55:06;;;;;;;2.80;1.80;;;14.20;58.70;;;;;;5083981;28;20235;-47
2023/03/08 07:57:38;;;;;;;3.33;1.63;;;14.10;58.50;;;;;;5070838;28;20692;-47
2023/03/08 08:00:11;;;;;;;2.20;2.00;;;14.10;58.50;;;;;;5066131;28;20208;-47
2023/03/08 08:02:41;;;;;;;2.07;1.83;;;14.10;58.70;;;;;;5075003;28;20194;-47
2023/03/08 08:05:15;;;;;;;1.70;1.60;;;14.10;58.40;;;;;;5085384;28;20274;-47
2023/03/08 08:07:47;;;;;;;2.63;2.23;;;14.10;58.40;;;;;;5068740;28;20209;-47
2023/03/08 08:10:17;;;;;;;2.37;2.00;;;14.10;58.50;;;;;;5069069;28;20251;-47
2023/03/08 08:12:51;;;;;;;2.07;1.90;;;14.10;58.40;;;;;;5081857;28;20624;-47
2023/03/08 08:15:24;;;;;;;3.53;2.20;;;14.20;58.50;;;;;;5059793;28;20205;-54
2023/03/08 08:17:55;;;;;;;4.87;2.47;;;14.10;58.40;;;;;;5063414;28;20193;-47
2023/03/08 08:20:23;;;;;;;3.83;1.80;;;14.30;60.30;;;;;;5052077;28;20209;-47
2023/03/08 08:22:53;;;;;;;4.37;1.70;;;14.40;61.20;;;;;;5078509;28;20197;-47
2023/03/08 08:25:26;;;;;;;4.50;1.40;;;14.70;61.50;;;;;;5071433;28;20342;-47
2023/03/08 08:27:58;;;;;;;2.50;1.30;;;15.00;61.60;;;;;;5065164;28;20562;-47
2023/03/08 08:30:31;;;;;;;3.03;1.50;;;15.30;60.30;;;;;;5068508;28;20218;-48
2023/03/08 08:33:02;;;;;;;7.10;1.47;;;15.50;59.70;;;;;;5063412;28;20206;-48
2023/03/08 08:35:31;;;;;;;1.67;1.43;;;15.70;59.20;;;;;;5075704;28;20201;-48
2023/03/08 08:38:12;;;;;;;3.00;1.13;;;16.00;59.10;;;;;;5078531;28;20205;-48
2023/03/08 08:40:43;;;;;;;1.97;1.47;;;16.10;58.70;;;;;;5067988;28;20216;-48
2023/03/08 08:43:13;;;;;;;3.50;1.50;;;16.40;57.90;;;;;;5070829;28;20220;-48
2023/03/08 08:45:57;;;;;;;1.97;1.30;;;16.60;57.10;;;;;;5063396;28;20241;-47
2023/03/08 08:48:36;;;;;;;1.87;1.40;;;16.80;56.30;;;;;;5067009;28;20244;-48
2023/03/08 08:51:08;;;;;;;2.97;2.07;;;17.00;55.40;;;;;;5056232;28;20267;-47
2023/03/08 08:53:37;;;;;;;3.17;1.73;;;17.20;54.60;;;;;;5038659;28;20186;-47
2023/03/08 08:56:18;;;;;;;2.43;2.20;;;17.40;54.60;;;;;;5053361;28;20225;-47
2023/03/08 08:59:02;;;;;;;5.77;1.87;;;17.60;54.20;;;;;;5060464;28;20212;-47
2023/03/08 09:01:38;;;;;;;2.80;1.93;;;17.80;53.80;;;;;;5068401;28;20229;-47
2023/03/08 09:04:06;;;;;;;3.50;2.30;;;18.00;53.40;;;;;;5068387;28;20198;-46
2023/03/08 09:06:38;;;;;;;3.30;2.00;;;18.20;53.20;;;;;;5067734;28;20260;-47
2023/03/08 09:09:08;;;;;;;3.57;2.03;;;18.30;52.80;;;;;;5047114;28;20206;-47
2023/03/08 09:11:38;;;;;;;2.57;1.60;;;18.50;52.50;;;;;;5052941;28;20194;-47
2023/03/08 09:14:23;;;;;;;2.23;1.60;;;18.60;52.30;;;;;;5070532;28;20189;-47
2023/03/08 09:16:54;;;;;;;2.93;1.60;;;18.80;52.20;;;;;;5071184;28;20194;-48
2023/03/08 09:19:25;;;;;;;3.00;1.97;;;18.90;51.90;;;;;;5061212;28;20211;-46
2023/03/08 09:21:57;;;;;;;2.87;2.03;;;19.00;51.20;;;;;;5051728;28;20202;-45
2023/03/08 09:24:27;;;;;;;3.07;2.20;;;19.00;50.90;;;;;;5068288;28;20537;-46
2023/03/08 09:26:54;;;;;;;2.97;2.10;;;18.80;49.90;;;;;;5068787;28;20615;-45
2023/03/08 09:29:26;;;;;;;3.77;2.50;;;18.70;49.70;;;;;;5053784;28;20201;-45
2023/03/08 09:31:53;;;;;;;4.20;2.23;;;18.50;49.90;;;;;;5052913;28;20198;-46
2023/03/08 09:34:26;;;;;;;3.63;2.70;;;18.50;49.70;;;;;;5068565;28;20190;-45
2023/03/08 09:37:07;;;;;;;3.20;2.70;;;18.40;49.50;;;;;;5049646;28;20201;-46
2023/03/08 09:39:37;;;;;;;3.40;3.00;;;18.20;49.50;;;;;;5065797;28;20193;-46
2023/03/08 09:42:34;;;;;;;3.20;2.90;;;18.20;49.80;;;;;;5051619;28;20196;-46
2023/03/08 09:45:27;;;;;;;3.97;2.40;;;18.10;49.80;;;;;;5058323;28;20266;-46
2023/03/08 09:48:29;;;;;;;2.40;2.20;;;18.10;50.20;;;;;;5067873;28;20234;-46
2023/03/08 09:51:04;;;;;;;5.93;2.40;;;18.20;51.50;;;;;;5058524;28;20213;-46
2023/03/08 09:54:03;;;;;;;2.87;2.07;;;18.40;51.70;;;;;;5070084;28;20239;-47
2023/03/08 09:56:40;;;;;;;2.50;2.23;;;18.50;51.70;;;;;;5050789;28;20299;-47
2023/03/08 09:59:41;;;;;;;2.60;2.17;;;18.70;51.40;;;;;;5067418;28;20202;-47
2023/03/08 10:02:45;;;;;;;5.27;4.50;;;18.90;51.10;;;;;;5061917;28;20214;-47
2023/03/08 10:05:52;;;;;;;3.03;2.67;;;18.90;47.30;;;;;;5063556;28;20299;-46
2023/03/08 10:08:34;;;;;;;3.30;2.53;;;19.10;49.70;;;;;;5069925;28;20210;-47
2023/03/08 10:11:12;;;;;;;4.13;2.83;;;19.20;49.50;;;;;;5068219;28;20499;-46
2023/03/08 10:13:50;;;;;;;2.43;2.13;;;19.40;49.50;;;;;;5054682;28;20277;-46
2023/03/08 10:16:27;;;;;;;2.53;2.17;;;19.60;49.40;;;;;;5069618;28;20209;-47
2023/03/08 10:19:27;;;;;;;2.33;2.10;;;19.80;49.40;;;;;;5044165;28;20607;-47
2023/03/08 10:22:27;;;;;;;2.50;2.30;;;19.80;49.30;;;;;;5048868;28;20212;-46
2023/03/08 10:25:20;;;;;;;3.97;2.30;;;20.00;48.90;;;;;;5054521;28;20252;-46
2023/03/08 10:27:53;;;;;;;2.10;1.90;;;20.10;48.60;;;;;;5064668;28;20186;-46
2023/03/08 10:30:47;;;;;;;2.57;2.23;;;20.20;48.60;;;;;;5038206;28;20189;-46
2023/03/08 10:33:18;;;;;;;2.37;1.83;;;20.30;48.70;;;;;;5055061;28;20660;-45
2023/03/08 10:36:15;;;;;;;4.53;2.20;;;20.50;48.50;;;;;;5066975;28;20682;-46
2023/03/08 10:38:57;;;;;;;2.83;2.10;;;20.60;48.50;;;;;;5068000;28;20283;-46
2023/03/08 10:41:31;;;;;;;3.40;2.17;;;20.80;48.20;;;;;;5061725;28;20622;-46
2023/03/08 10:43:59;;;;;;;4.50;1.67;;;20.80;48.00;;;;;;5042546;28;20236;-46
2023/03/08 10:46:32;;;;;;;3.67;2.23;;;21.00;47.70;;;;;;5062848;28;20217;-46
2023/03/08 10:49:12;;;;;;;3.47;2.13;;;21.10;47.40;;;;;;5059011;28;20748;-46
2023/03/08 10:51:50;;;;;;;3.77;2.50;;;21.20;47.40;;;;;;5049621;28;20193;-46
2023/03/08 10:54:21;;;;;;;3.00;2.00;;;21.20;47.40;;;;;;5049898;28;20190;-46
2023/03/08 10:56:57;;;;;;;3.57;2.10;;;21.30;47.40;;;;;;5061502;28;20220;-46
2023/03/08 10:59:33;;;;;;;2.47;2.20;;;21.40;47.30;;;;;;5049293;28;20204;-46
2023/03/08 11:02:21;;;;;;;3.30;2.27;;;21.40;47.00;;;;;;5059016;28;20216;-46
2023/03/08 11:04:57;;;;;;;5.97;2.53;;;21.50;47.40;;;;;;5054355;28;20600;-46
2023/03/08 11:07:31;;;;;;;3.13;2.20;;;21.50;46.70;;;;;;5041782;28;20202;-47
2023/03/08 11:10:19;;;;;;;2.57;2.00;;;21.20;45.90;;;;;;5030698;28;20708;-47
2023/03/08 11:13:11;;;;;;;3.73;2.60;;;21.00;45.80;;;;;;5066557;28;20190;-47
2023/03/08 11:15:52;;;;;;;3.40;2.73;;;20.90;45.80;;;;;;5055987;28;20217;-46
2023/03/08 11:18:40;;;;;;;4.17;2.20;;;20.70;46.00;;;;;;5062305;28;20193;-46
2023/03/08 11:21:28;;;;;;;3.00;2.10;;;20.50;46.20;;;;;;5066005;28;20578;-46
2023/03/08 11:24:34;;;;;;;3.70;2.80;;;20.30;45.60;;;;;;5070430;28;20330;-46
2023/03/08 11:27:29;;;;;;;6.07;2.77;;;20.20;46.20;;;;;;5068279;28;20212;-46
2023/03/08 11:30:31;;;;;;;3.30;2.33;;;20.10;46.50;;;;;;5072293;28;20189;-46
2023/03/08 11:33:43;;;;;;;3.47;2.40;;;19.90;46.60;;;;;;5063974;28;20545;-46
2023/03/08 11:36:42;;;;;;;4.50;2.67;;;19.80;46.90;;;;;;5065510;28;20329;-48
2023/03/08 11:39:33;;;;;;;3.10;2.30;;;19.60;46.90;;;;;;5068938;28;20213;-48
2023/03/08 11:42:27;;;;;;;3.73;2.57;;;19.50;47.40;;;;;;5069287;28;20551;-46
2023/03/08 11:45:17;;;;;;;3.07;2.47;;;19.40;47.40;;;;;;5051007;28;20291;-46
2023/03/08 11:48:22;;;;;;;3.70;2.67;;;19.30;47.60;;;;;;5068391;28;20243;-46
2023/03/08 11:51:21;;;;;;;3.30;2.40;;;19.20;47.70;;;;;;5073649;28;20196;-46
2023/03/08 11:54:13;;;;;;;2.53;2.30;;;19.10;47.90;;;;;;5068924;28;20208;-46
2023/03/08 11:56:50;;;;;;;3.47;2.40;;;19.00;48.20;;;;;;5082979;28;20270;-47
2023/03/08 11:59:59;;;;;;;6.37;2.47;;;18.90;48.10;;;;;;5077587;28;20197;-46
2023/03/08 12:02:36;;;;;;;3.73;2.90;;;18.80;48.70;;;;;;5085556;28;20195;-46
2023/03/08 12:05:31;;;;;;;4.13;2.50;;;18.70;49.20;;;;;;5070047;28;20213;-46
2023/03/08 12:08:28;;;;;;;2.43;2.23;;;18.70;49.60;;;;;;5081953;28;20614;-46
2023/03/08 12:11:31;;;;;;;3.87;2.30;;;18.70;50.10;;;;;;5082520;28;20231;-46
2023/03/08 12:14:24;;;;;;;3.33;2.30;;;18.70;50.50;;;;;;5087202;28;20193;-46
2023/03/08 12:17:08;;;;;;;2.93;1.83;;;18.70;50.40;;;;;;5074497;28;20197;-46
2023/03/08 12:19:47;;;;;;;2.40;2.20;;;18.70;50.70;;;;;;5081868;28;20205;-46
2023/03/08 12:22:44;;;;;;;2.33;2.00;;;18.70;49.90;;;;;;5079020;28;20349;-46
2023/03/08 12:25:34;;;;;;;4.17;2.37;;;18.60;50.10;;;;;;5082016;28;20508;-47
2023/03/08 12:28:26;;;;;;;2.50;1.90;;;18.60;50.20;;;;;;5071147;28;20185;-46
2023/03/08 12:31:24;;;;;;;3.33;2.23;;;18.60;50.80;;;;;;5082698;28;20193;-46
2023/03/08 12:33:59;;;;;;;2.93;1.90;;;18.70;50.30;;;;;;5084706;28;20204;-46
2023/03/08 12:36:44;;;;;;;2.37;2.13;;;18.70;50.50;;;;;;5070712;28;20221;-47
2023/03/08 12:39:37;;;;;;;2.53;2.33;;;18.70;50.30;;;;;;5085759;28;20712;-47
2023/03/08 12:42:27;;;;;;;2.43;2.00;;;18.60;50.10;;;;;;5069512;28;20525;-46
2023/03/08 12:45:19;;;;;;;2.70;2.20;;;18.60;50.00;;;;;;5070865;28;20213;-46
2023/03/08 12:48:16;;;;;;;3.33;2.10;;;18.70;50.80;;;;;;5088920;28;20318;-46
2023/03/08 12:51:19;;;;;;;2.33;2.13;;;18.70;50.60;;;;;;5073516;28;20282;-46
2023/03/08 12:54:02;;;;;;;5.67;2.17;;;18.60;50.00;;;;;;5096860;28;20223;-46
2023/03/08 12:56:51;;;;;;;4.23;2.07;;;18.60;50.10;;;;;;5075359;28;20638;-47
2023/03/08 12:59:25;;;;;;;2.20;1.97;;;18.70;50.60;;;;;;5091600;28;20264;-47
2023/03/08 13:02:21;;;;;;;1.77;1.63;;;18.70;50.60;;;;;;5086056;28;20787;-46
2023/03/08 13:05:21;;;;;;;3.03;1.83;;;18.70;50.30;;;;;;5069822;28;20642;-47
2023/03/08 13:08:13;;;;;;;2.13;1.87;;;18.70;50.60;;;;;;5073160;28;20696;-47
2023/03/08 13:10:54;;;;;;;6.47;2.10;;;18.70;50.90;;;;;;5080681;28;20208;-46
2023/03/08 13:13:45;;;;;;;2.00;1.80;;;18.70;50.10;;;;;;5086388;28;20196;-47
2023/03/08 13:16:34;;;;;;;2.50;2.07;;;18.70;50.20;;;;;;5086958;28;20193;-46
2023/03/08 13:19:17;;;;;;;2.37;2.00;;;18.70;50.00;;;;;;5077504;28;20204;-47
2023/03/08 13:22:33;;;;;;;2.57;1.80;;;18.70;50.10;;;;;;5087539;28;20651;-46
2023/03/08 13:25:22;;;;;;;2.43;2.20;;;18.70;50.00;;;;;;5073274;28;20192;-46
2023/03/08 13:28:36;;;;;;;2.30;2.10;;;18.70;50.30;;;;;;5061165;28;20295;-47
2023/03/08 13:31:20;;;;;;;2.13;1.97;;;18.70;50.10;;;;;;5076951;28;20603;-47
2023/03/08 13:33:53;;;;;;;2.00;1.80;;;18.60;50.40;;;;;;5061271;28;20205;-47
2023/03/08 13:36:34;;;;;;;1.90;1.80;;;18.60;50.40;;;;;;5082055;28;20630;-47